Time;durP1;ratioP1;P1;durP2;ratioP2;P2;SDS_P1;SDS_P2;PMS_P1;PMS_P2;Temp;Humidity;BMP_temperature;BMP_pressure;BME280_temperature;BME280_humidity;BME280_pressure;Samples;Min_cycle;Max_cycle;Signal;HPM_P1;HPM_P2
2021/03/23 00:00:55;;;;;;;28.90;4.97;;;;;;;;;;4990819;28;20046;-51
2021/03/23 00:03:31;;;;;;;30.35;5.28;;;;;;;;;;4992214;28;20093;-53
2021/03/23 00:05:58;;;;;;;28.45;6.07;;;;;;;;;;4991501;28;20036;-55
2021/03/23 00:08:29;;;;;;;34.15;5.90;;;;;;;;;;4989222;28;20040;-48
2021/03/23 00:10:58;;;;;;;32.53;4.97;;;;;;;;;;4986845;28;20115;-50
2021/03/23 00:13:25;;;;;;;26.73;4.97;;;;;;;;;;4992235;28;20022;-49
2021/03/23 00:15:52;;;;;;;29.27;4.50;;;;;;;;;;4991428;28;20490;-51
2021/03/23 00:18:20;;;;;;;28.80;4.85;;;;;;;;;;4990051;28;20479;-51
2021/03/23 00:20:47;;;;;;;31.15;5.10;;;;;;;;;;4983915;28;20076;-51
2021/03/23 00:23:14;;;;;;;28.30;4.70;;;;;;;;;;4989041;28;20026;-53
2021/03/23 00:25:41;;;;;;;24.67;5.18;;;;;;;;;;4991854;28;20049;-52
2021/03/23 00:28:09;;;;;;;31.35;5.43;;;;;;;;;;4991988;28;20117;-49
2021/03/23 00:30:36;;;;;;;32.30;4.95;;;;;;;;;;4991449;28;20026;-52
2021/03/23 00:33:03;;;;;;;24.08;4.50;;;;;;;;;;4992690;28;20043;-51
2021/03/23 00:35:30;;;;;;;38.00;5.63;;;;;;;;;;4989985;28;20093;-53
2021/03/23 00:37:59;;;;;;;27.20;4.93;;;;;;;;;;4974529;28;20031;-49
2021/03/23 00:40:27;;;;;;;30.15;4.88;;;;;;;;;;4992188;28;20034;-49
2021/03/23 00:42:55;;;;;;;26.05;4.95;;;;;;;;;;4991646;28;20058;-53
2021/03/23 00:45:22;;;;;;;31.45;6.00;;;;;;;;;;4991746;28;20695;-53
2021/03/23 00:47:50;;;;;;;26.40;4.97;;;;;;;;;;4990049;28;20046;-51
2021/03/23 00:50:17;;;;;;;21.75;5.20;;;;;;;;;;4992279;28;20022;-52
2021/03/23 00:52:44;;;;;;;33.50;5.43;;;;;;;;;;4991549;28;20037;-53
2021/03/23 00:55:11;;;;;;;37.42;5.50;;;;;;;;;;4991731;28;20023;-54
2021/03/23 00:57:38;;;;;;;24.25;5.32;;;;;;;;;;4987782;28;20038;-48
2021/03/23 01:00:06;;;;;;;30.17;5.38;;;;;;;;;;4991827;28;20069;-46
2021/03/23 01:02:33;;;;;;;27.63;5.60;;;;;;;;;;4973786;28;20034;-46
2021/03/23 01:05:00;;;;;;;34.50;4.75;;;;;;;;;;4991300;28;20019;-49
2021/03/23 01:07:27;;;;;;;32.85;4.85;;;;;;;;;;4979911;28;20037;-47
2021/03/23 01:09:54;;;;;;;21.85;5.05;;;;;;;;;;4991694;28;20022;-46
2021/03/23 01:12:21;;;;;;;24.02;5.25;;;;;;;;;;4985630;28;20022;-49
2021/03/23 01:14:48;;;;;;;29.23;4.78;;;;;;;;;;4989970;28;20030;-47
2021/03/23 01:17:15;;;;;;;27.88;5.22;;;;;;;;;;4988860;28;20105;-47
2021/03/23 01:19:43;;;;;;;24.95;4.40;;;;;;;;;;4991046;28;20070;-46
2021/03/23 01:22:10;;;;;;;35.30;5.05;;;;;;;;;;4983164;28;20082;-49
2021/03/23 01:24:37;;;;;;;28.55;4.72;;;;;;;;;;4977862;28;20027;-48
2021/03/23 01:27:05;;;;;;;22.25;4.60;;;;;;;;;;4989807;28;20023;-49
2021/03/23 01:29:32;;;;;;;23.15;4.05;;;;;;;;;;4991473;28;20185;-49
2021/03/23 01:32:00;;;;;;;21.48;4.40;;;;;;;;;;4991628;28;20092;-48
2021/03/23 01:34:27;;;;;;;21.85;4.72;;;;;;;;;;4991718;28;20030;-50
2021/03/23 01:36:54;;;;;;;18.40;4.57;;;;;;;;;;4991980;28;20026;-53
2021/03/23 01:39:22;;;;;;;27.30;4.05;;;;;;;;;;4991836;28;20018;-54
2021/03/23 01:41:49;;;;;;;26.02;4.97;;;;;;;;;;4970521;28;20034;-51
2021/03/23 01:44:16;;;;;;;19.55;4.20;;;;;;;;;;4988831;28;20031;-52
2021/03/23 01:46:44;;;;;;;28.25;5.32;;;;;;;;;;4973990;28;20529;-48
2021/03/23 01:49:14;;;;;;;18.52;4.25;;;;;;;;;;4990729;28;20042;-53
2021/03/23 01:51:42;;;;;;;22.17;4.65;;;;;;;;;;4989759;28;20426;-53
2021/03/23 01:54:12;;;;;;;19.35;3.90;;;;;;;;;;4991494;28;20019;-48
2021/03/23 01:56:38;;;;;;;25.90;3.55;;;;;;;;;;4990435;28;20124;-53
2021/03/23 01:59:07;;;;;;;16.75;3.92;;;;;;;;;;4989788;28;20019;-49
2021/03/23 02:01:36;;;;;;;20.05;3.95;;;;;;;;;;4974789;28;20047;-53
2021/03/23 02:04:04;;;;;;;17.73;4.07;;;;;;;;;;4991597;28;20023;-50
2021/03/23 02:06:37;;;;;;;20.75;3.95;;;;;;;;;;4991310;28;20018;-53
2021/03/23 02:09:06;;;;;;;17.75;4.25;;;;;;;;;;4989619;28;20038;-50
2021/03/23 02:11:35;;;;;;;15.57;3.90;;;;;;;;;;4992066;28;20098;-49
2021/03/23 02:14:03;;;;;;;17.92;3.95;;;;;;;;;;4991703;28;20025;-53
2021/03/23 02:16:30;;;;;;;11.55;3.55;;;;;;;;;;4991775;28;20010;-50
2021/03/23 02:18:57;;;;;;;13.63;3.67;;;;;;;;;;4991850;28;20026;-51
2021/03/23 02:21:24;;;;;;;18.00;4.13;;;;;;;;;;4988776;28;20057;-50
2021/03/23 02:23:53;;;;;;;14.00;3.85;;;;;;;;;;4992820;28;20037;-50
2021/03/23 02:26:22;;;;;;;18.15;4.10;;;;;;;;;;4989522;28;20026;-50
2021/03/23 02:28:54;;;;;;;20.10;3.72;;;;;;;;;;4992233;28;20030;-53
2021/03/23 02:31:30;;;;;;;13.80;4.10;;;;;;;;;;4995431;28;20034;-52
2021/03/23 02:33:58;;;;;;;13.82;3.60;;;;;;;;;;4994976;28;20096;-50
2021/03/23 02:36:25;;;;;;;17.45;3.55;;;;;;;;;;4995990;28;20378;-52
2021/03/23 02:38:53;;;;;;;11.00;3.70;;;;;;;;;;4995218;28;20054;-53
2021/03/23 02:41:20;;;;;;;12.35;4.22;;;;;;;;;;4996207;28;20019;-50
2021/03/23 02:43:47;;;;;;;14.38;3.70;;;;;;;;;;4996083;28;20026;-51
2021/03/23 02:46:14;;;;;;;13.70;3.72;;;;;;;;;;4996086;28;20501;-52
2021/03/23 02:48:41;;;;;;;15.30;3.53;;;;;;;;;;4995947;28;20086;-54
2021/03/23 02:51:09;;;;;;;13.27;4.03;;;;;;;;;;4996239;28;20053;-53
2021/03/23 02:53:36;;;;;;;12.82;3.25;;;;;;;;;;4995847;28;20026;-55
2021/03/23 02:56:03;;;;;;;11.68;3.38;;;;;;;;;;4996000;28;20089;-56
2021/03/23 02:58:30;;;;;;;11.57;3.13;;;;;;;;;;4996175;28;20097;-57
2021/03/23 03:00:57;;;;;;;13.88;3.72;;;;;;;;;;4995987;28;20018;-56
2021/03/23 03:03:24;;;;;;;9.00;3.13;;;;;;;;;;4995898;28;20054;-56
2021/03/23 03:05:51;;;;;;;8.63;3.25;;;;;;;;;;4996098;28;20037;-56
2021/03/23 03:08:18;;;;;;;11.15;3.20;;;;;;;;;;4995481;28;20101;-54
2021/03/23 03:10:45;;;;;;;11.07;3.00;;;;;;;;;;4978142;28;20023;-54
2021/03/23 03:13:12;;;;;;;12.73;3.45;;;;;;;;;;4995813;28;20091;-55
2021/03/23 03:15:39;;;;;;;12.82;3.35;;;;;;;;;;4995325;28;20022;-54
2021/03/23 03:18:06;;;;;;;8.95;3.05;;;;;;;;;;4995548;28;20061;-56
2021/03/23 03:20:33;;;;;;;10.98;3.35;;;;;;;;;;4995659;28;20022;-56
2021/03/23 03:23:00;;;;;;;8.80;3.03;;;;;;;;;;4995043;28;20069;-54
2021/03/23 03:25:27;;;;;;;10.43;3.75;;;;;;;;;;4995387;28;20534;-53
2021/03/23 03:27:54;;;;;;;9.95;3.10;;;;;;;;;;4995292;28;20030;-51
2021/03/23 03:30:26;;;;;;;10.60;3.40;;;;;;;;;;4995387;28;20073;-55
2021/03/23 03:32:54;;;;;;;9.10;3.22;;;;;;;;;;4995059;28;20014;-54
2021/03/23 03:35:21;;;;;;;9.65;2.83;;;;;;;;;;4994422;28;20100;-55
2021/03/23 03:37:48;;;;;;;10.32;2.97;;;;;;;;;;4994996;28;20030;-55
2021/03/23 03:40:20;;;;;;;11.23;3.30;;;;;;;;;;4987642;28;20502;-56
2021/03/23 03:42:47;;;;;;;8.73;3.20;;;;;;;;;;4994259;28;20029;-53
2021/03/23 03:45:15;;;;;;;8.70;3.35;;;;;;;;;;4993810;28;20031;-54
2021/03/23 03:47:42;;;;;;;10.35;3.20;;;;;;;;;;4994618;28;20034;-56
2021/03/23 03:50:09;;;;;;;9.50;3.10;;;;;;;;;;4993877;28;20467;-51
2021/03/23 03:52:36;;;;;;;9.88;3.28;;;;;;;;;;4994628;28;20030;-53
2021/03/23 03:55:04;;;;;;;10.98;3.33;;;;;;;;;;4993705;28;20101;-51
2021/03/23 03:57:31;;;;;;;8.00;2.78;;;;;;;;;;4994833;28;20024;-56
2021/03/23 03:59:58;;;;;;;10.70;3.13;;;;;;;;;;4994985;28;20441;-56
2021/03/23 04:02:24;;;;;;;9.88;3.47;;;;;;;;;;4994789;28;20023;-56
2021/03/23 04:04:51;;;;;;;9.57;3.15;;;;;;;;;;4994588;28;20028;-52
2021/03/23 04:07:18;;;;;;;13.23;3.78;;;;;;;;;;4994711;28;20026;-56
2021/03/23 04:09:46;;;;;;;6.55;2.63;;;;;;;;;;4994822;28;20062;-55
2021/03/23 04:12:13;;;;;;;9.02;2.83;;;;;;;;;;4994685;28;20015;-56
2021/03/23 04:14:40;;;;;;;6.65;2.83;;;;;;;;;;4994530;28;20027;-56
2021/03/23 04:17:07;;;;;;;8.60;3.20;;;;;;;;;;4994568;28;20023;-52
2021/03/23 04:19:34;;;;;;;9.18;2.67;;;;;;;;;;4994431;28;20034;-56
2021/03/23 04:22:01;;;;;;;10.77;2.90;;;;;;;;;;4960881;28;20402;-51
2021/03/23 04:24:28;;;;;;;13.13;3.10;;;;;;;;;;4994499;28;20069;-56
2021/03/23 04:26:55;;;;;;;7.90;2.90;;;;;;;;;;4977019;28;20686;-56
2021/03/23 04:29:22;;;;;;;10.15;3.40;;;;;;;;;;4994112;28;20026;-56
2021/03/23 04:31:49;;;;;;;7.80;2.92;;;;;;;;;;4994264;28;20490;-58
2021/03/23 04:34:16;;;;;;;8.65;3.20;;;;;;;;;;4993871;28;20027;-56
2021/03/23 04:36:43;;;;;;;7.80;2.58;;;;;;;;;;4994094;28;20026;-56
2021/03/23 04:39:13;;;;;;;9.73;3.15;;;;;;;;;;4994312;28;20506;-56
2021/03/23 04:41:40;;;;;;;8.00;2.88;;;;;;;;;;4993987;28;20030;-56
2021/03/23 04:44:08;;;;;;;10.45;2.90;;;;;;;;;;4976471;28;20026;-54
2021/03/23 04:46:35;;;;;;;6.22;2.88;;;;;;;;;;4993174;28;20022;-56
2021/03/23 04:49:02;;;;;;;7.30;2.63;;;;;;;;;;4993728;28;20035;-56
2021/03/23 04:51:32;;;;;;;10.02;3.00;;;;;;;;;;4993831;28;20118;-56
2021/03/23 04:54:01;;;;;;;9.70;2.90;;;;;;;;;;4986531;28;20471;-51
2021/03/23 04:56:29;;;;;;;10.18;3.13;;;;;;;;;;4992800;28;20398;-51
2021/03/23 04:58:57;;;;;;;9.98;2.72;;;;;;;;;;4993060;28;20025;-53
2021/03/23 05:01:24;;;;;;;8.70;2.92;;;;;;;;;;4993308;28;20057;-54
2021/03/23 05:03:59;;;;;;;8.27;2.67;;;;;;;;;;4992902;28;20077;-50
2021/03/23 05:06:26;;;;;;;8.93;3.10;;;;;;;;;;4993165;28;20045;-55
2021/03/23 05:08:54;;;;;;;7.88;2.70;;;;;;;;;;4993458;28;20030;-56
2021/03/23 05:11:27;;;;;;;7.72;2.83;;;;;;;;;;4993645;28;20046;-56
2021/03/23 05:13:54;;;;;;;7.38;2.70;;;;;;;;;;4993328;28;20360;-55
2021/03/23 05:16:21;;;;;;;7.20;2.65;;;;;;;;;;4993313;28;20026;-54
2021/03/23 05:18:48;;;;;;;8.82;3.03;;;;;;;;;;4993628;28;20031;-56
2021/03/23 05:21:15;;;;;;;6.70;2.58;;;;;;;;;;4993174;28;20033;-56
2021/03/23 05:23:42;;;;;;;7.03;2.90;;;;;;;;;;4992554;28;20022;-53
2021/03/23 05:26:09;;;;;;;5.00;2.78;;;;;;;;;;4975856;28;20022;-55
2021/03/23 05:28:36;;;;;;;5.88;2.47;;;;;;;;;;4992996;28;20038;-54
2021/03/23 05:31:04;;;;;;;8.80;2.67;;;;;;;;;;4992818;28;20026;-53
2021/03/23 05:33:31;;;;;;;9.20;3.58;;;;;;;;;;4993263;28;20026;-53
2021/03/23 05:36:00;;;;;;;5.03;2.25;;;;;;;;;;4993113;28;20486;-54
2021/03/23 05:38:28;;;;;;;8.95;2.97;;;;;;;;;;4992840;28;20030;-52
2021/03/23 05:41:01;;;;;;;7.10;2.90;;;;;;;;;;4992808;28;20487;-52
2021/03/23 05:43:50;;;;;;;8.90;2.90;;;;;;;;;;4975561;28;20092;-51
2021/03/23 05:46:17;;;;;;;7.50;2.95;;;;;;;;;;4993025;28;20386;-54
2021/03/23 05:49:06;;;;;;;7.38;2.83;;;;;;;;;;4992777;28;20030;-54
2021/03/23 05:51:40;;;;;;;5.40;2.72;;;;;;;;;;4993076;28;20050;-52
2021/03/23 05:54:08;;;;;;;5.97;2.70;;;;;;;;;;4992703;28;20030;-53
2021/03/23 05:56:38;;;;;;;8.98;2.75;;;;;;;;;;4992780;28;20045;-54
2021/03/23 05:59:12;;;;;;;8.70;2.83;;;;;;;;;;4992404;28;20062;-51
2021/03/23 06:01:45;;;;;;;6.20;2.38;;;;;;;;;;4992979;28;20061;-54
2021/03/23 06:04:18;;;;;;;8.00;2.67;;;;;;;;;;4992763;28;20045;-53
2021/03/23 06:06:50;;;;;;;7.28;2.60;;;;;;;;;;4992486;28;20023;-51
2021/03/23 06:09:18;;;;;;;8.20;2.67;;;;;;;;;;4992458;28;20434;-52
2021/03/23 06:11:51;;;;;;;9.68;2.55;;;;;;;;;;4992827;28;20019;-50
2021/03/23 06:14:27;;;;;;;7.03;2.40;;;;;;;;;;4992519;28;20363;-51
2021/03/23 06:16:58;;;;;;;6.97;2.55;;;;;;;;;;4992609;28;20030;-51
2021/03/23 06:19:25;;;;;;;6.18;2.33;;;;;;;;;;4992474;28;20010;-54
2021/03/23 06:22:10;;;;;;;7.32;2.97;;;;;;;;;;4992518;28;20046;-52
2021/03/23 06:24:37;;;;;;;7.55;3.17;;;;;;;;;;4992823;28;20145;-52
2021/03/23 06:27:21;;;;;;;4.72;2.30;;;;;;;;;;4992546;28;20494;-54
2021/03/23 06:30:00;;;;;;;8.35;2.60;;;;;;;;;;4992428;28;20490;-54
2021/03/23 06:32:27;;;;;;;7.35;2.60;;;;;;;;;;4992601;28;20018;-54
2021/03/23 06:34:58;;;;;;;7.15;2.65;;;;;;;;;;4992655;28;20027;-50
2021/03/23 06:37:28;;;;;;;5.25;2.13;;;;;;;;;;4992577;28;20394;-53
2021/03/23 06:39:55;;;;;;;5.95;2.53;;;;;;;;;;4992486;28;20041;-51
2021/03/23 06:42:54;;;;;;;7.13;2.50;;;;;;;;;;4992416;28;20034;-52
2021/03/23 06:45:24;;;;;;;5.57;2.05;;;;;;;;;;4949575;28;20398;-52
2021/03/23 06:47:51;;;;;;;4.30;1.90;;;;;;;;;;4992183;28;20018;-55
2021/03/23 06:50:24;;;;;;;5.07;2.13;;;;;;;;;;4974939;28;20038;-51
2021/03/23 06:53:05;;;;;;;7.43;2.50;;;;;;;;;;4992264;28;20069;-53
2021/03/23 06:55:32;;;;;;;5.20;1.90;;;;;;;;;;4992272;28;20109;-53
2021/03/23 06:58:00;;;;;;;6.95;2.30;;;;;;;;;;4992312;28;20026;-55
2021/03/23 07:00:34;;;;;;;5.20;2.05;;;;;;;;;;4992328;28;20057;-52
2021/03/23 07:03:12;;;;;;;6.45;2.03;;;;;;;;;;4992245;28;20031;-54
2021/03/23 07:05:41;;;;;;;7.22;2.22;;;;;;;;;;4991791;28;20113;-52
2021/03/23 07:08:09;;;;;;;6.72;2.30;;;;;;;;;;4992186;28;20422;-50
2021/03/23 07:10:43;;;;;;;7.05;2.33;;;;;;;;;;4994072;28;20156;-51
2021/03/23 07:13:30;;;;;;;5.88;2.30;;;;;;;;;;4995698;28;20493;-50
2021/03/23 07:15:57;;;;;;;5.57;2.40;;;;;;;;;;4995567;28;20026;-51
2021/03/23 07:18:27;;;;;;;7.55;3.05;;;;;;;;;;4995532;28;20026;-52
2021/03/23 07:20:56;;;;;;;3.97;2.30;;;;;;;;;;4994361;28;20493;-51
2021/03/23 07:23:31;;;;;;;8.70;2.35;;;;;;;;;;4995440;28;20482;-51
2021/03/23 07:26:14;;;;;;;5.10;2.03;;;;;;;;;;4995482;28;20463;-51
2021/03/23 07:28:43;;;;;;;5.05;1.98;;;;;;;;;;4995146;28;20045;-51
2021/03/23 07:31:10;;;;;;;7.18;2.80;;;;;;;;;;4977844;28;20029;-51
2021/03/23 07:34:04;;;;;;;6.60;2.45;;;;;;;;;;4995246;28;20164;-52
2021/03/23 07:36:40;;;;;;;6.40;2.33;;;;;;;;;;4991915;28;20546;-51
2021/03/23 07:39:21;;;;;;;5.90;2.08;;;;;;;;;;4994151;28;20057;-51
2021/03/23 07:42:14;;;;;;;5.90;2.35;;;;;;;;;;4995416;28;20502;-54
2021/03/23 07:44:57;;;;;;;4.85;2.47;;;;;;;;;;4992024;28;20042;-50
2021/03/23 07:47:44;;;;;;;8.27;2.47;;;;;;;;;;4995130;28;20122;-53
2021/03/23 07:50:26;;;;;;;5.55;2.75;;;;;;;;;;4994849;28;20034;-53
2021/03/23 07:53:12;;;;;;;6.85;2.20;;;;;;;;;;4995102;28;20030;-53
2021/03/23 07:55:39;;;;;;;4.57;2.00;;;;;;;;;;4995197;28;20025;-53
2021/03/23 07:58:24;;;;;;;4.88;2.17;;;;;;;;;;4995002;28;20018;-53
2021/03/23 08:01:23;;;;;;;7.07;2.33;;;;;;;;;;4994984;28;20352;-51
2021/03/23 08:03:59;;;;;;;6.28;2.30;;;;;;;;;;4952039;28;20065;-53
2021/03/23 08:06:32;;;;;;;6.72;2.38;;;;;;;;;;4994625;28;20030;-53
2021/03/23 08:08:59;;;;;;;4.45;2.30;;;;;;;;;;4994644;28;20574;-54
2021/03/23 08:11:32;;;;;;;7.05;2.33;;;;;;;;;;4977191;28;20033;-53
2021/03/23 08:13:59;;;;;;;5.65;2.53;;;;;;;;;;4994675;28;20360;-54
2021/03/23 08:16:42;;;;;;;4.88;2.10;;;;;;;;;;4994714;28;20018;-52
2021/03/23 08:19:09;;;;;;;6.13;2.00;;;;;;;;;;4994505;28;20077;-52
2021/03/23 08:21:56;;;;;;;5.68;2.17;;;;;;;;;;4976688;28;20038;-52
2021/03/23 08:24:27;;;;;;;7.50;2.50;;;;;;;;;;4994490;28;20022;-53
2021/03/23 08:27:12;;;;;;;5.30;2.20;;;;;;;;;;4994324;28;20030;-52
2021/03/23 08:30:00;;;;;;;5.38;2.00;;;;;;;;;;4993981;28;20046;-52
2021/03/23 08:32:37;;;;;;;5.75;2.38;;;;;;;;;;4994301;28;20037;-52
2021/03/23 08:35:22;;;;;;;8.15;2.20;;;;;;;;;;4994252;28;20027;-53
2021/03/23 08:37:55;;;;;;;4.70;1.98;;;;;;;;;;4994204;28;20363;-52
2021/03/23 08:40:32;;;;;;;7.07;2.40;;;;;;;;;;4994292;28;20022;-53
2021/03/23 08:43:00;;;;;;;5.68;2.05;;;;;;;;;;4993835;28;20033;-54
2021/03/23 08:45:32;;;;;;;5.53;2.45;;;;;;;;;;4993966;28;20026;-53
2021/03/23 08:48:05;;;;;;;4.55;2.10;;;;;;;;;;4993927;28;20033;-53
2021/03/23 08:50:34;;;;;;;5.25;1.98;;;;;;;;;;4993865;28;20106;-52
2021/03/23 08:53:04;;;;;;;5.05;2.03;;;;;;;;;;4993640;28;20053;-51
2021/03/23 08:55:31;;;;;;;4.47;2.00;;;;;;;;;;4993478;28;20106;-52
2021/03/23 08:58:06;;;;;;;6.20;2.33;;;;;;;;;;4994020;28;20105;-55
2021/03/23 09:00:36;;;;;;;5.07;2.38;;;;;;;;;;4993937;28;20018;-52
2021/03/23 09:03:09;;;;;;;5.88;2.28;;;;;;;;;;4993511;28;20022;-54
2021/03/23 09:05:56;;;;;;;4.57;2.20;;;;;;;;;;4993720;28;20053;-61
2021/03/23 09:08:23;;;;;;;4.53;2.78;;;;;;;;;;4993633;28;20038;-52
2021/03/23 09:10:52;;;;;;;7.72;2.25;;;;;;;;;;4993599;28;20080;-51
2021/03/23 09:13:45;;;;;;;4.32;2.30;;;;;;;;;;4993516;28;20383;-50
2021/03/23 09:16:12;;;;;;;7.47;2.47;;;;;;;;;;4993482;28;20384;-52
2021/03/23 09:19:02;;;;;;;4.78;2.15;;;;;;;;;;4993448;28;20033;-51
2021/03/23 09:21:47;;;;;;;4.57;2.20;;;;;;;;;;4983615;28;20073;-52
2021/03/23 09:24:25;;;;;;;4.78;1.90;;;;;;;;;;4993275;28;20026;-53
2021/03/23 09:26:52;;;;;;;8.35;2.83;;;;;;;;;;4993198;28;20534;-54
2021/03/23 09:29:25;;;;;;;7.70;2.50;;;;;;;;;;4993020;28;20117;-52
2021/03/23 09:31:52;;;;;;;4.75;1.83;;;;;;;;;;4993290;28;20085;-51
2021/03/23 09:34:37;;;;;;;15.82;2.63;;;;;;;;;;4992791;28;20030;-52
2021/03/23 09:37:37;;;;;;;12.07;2.38;;;;;;;;;;4983230;28;20480;-49
2021/03/23 09:40:19;;;;;;;6.97;1.98;;;;;;;;;;4933658;28;20035;-53
2021/03/23 09:42:47;;;;;;;8.20;2.10;;;;;;;;;;4973525;28;20089;-52
2021/03/23 09:45:14;;;;;;;5.68;2.17;;;;;;;;;;4973205;28;20070;-50
2021/03/23 09:48:00;;;;;;;6.22;1.85;;;;;;;;;;4955983;28;20018;-53
2021/03/23 09:50:31;;;;;;;3.30;1.67;;;;;;;;;;4973219;28;20058;-51
2021/03/23 09:53:10;;;;;;;6.80;2.22;;;;;;;;;;4974077;28;20019;-53
2021/03/23 09:55:39;;;;;;;7.85;2.10;;;;;;;;;;4987456;28;20101;-50
2021/03/23 09:58:07;;;;;;;7.95;1.88;;;;;;;;;;4991209;28;20021;-53
2021/03/23 10:00:35;;;;;;;5.25;2.10;;;;;;;;;;4991068;28;20497;-50
2021/03/23 10:03:02;;;;;;;5.13;2.17;;;;;;;;;;4991225;28;20486;-51
2021/03/23 10:05:32;;;;;;;8.18;2.00;;;;;;;;;;4991405;28;20373;-54
2021/03/23 10:08:13;;;;;;;6.70;2.08;;;;;;;;;;4991118;28;20030;-54
2021/03/23 10:10:41;;;;;;;5.97;2.10;;;;;;;;;;4991121;28;20036;-53
2021/03/23 10:13:37;;;;;;;10.57;2.30;;;;;;;;;;4991970;28;20383;-52
2021/03/23 10:16:08;;;;;;;5.05;1.70;;;;;;;;;;4976378;28;20041;-53
2021/03/23 10:18:39;;;;;;;3.50;1.60;;;;;;;;;;4992552;28;20030;-54
2021/03/23 10:21:10;;;;;;;6.43;2.28;;;;;;;;;;4992623;28;20033;-52
2021/03/23 10:23:51;;;;;;;6.32;2.05;;;;;;;;;;4992509;28;20035;-53
2021/03/23 10:26:18;;;;;;;3.80;2.00;;;;;;;;;;4975225;28;20026;-53
2021/03/23 10:28:51;;;;;;;5.60;2.40;;;;;;;;;;4992591;28;20038;-51
2021/03/23 10:31:17;;;;;;;;;;;;;;;;;;4992548;28;20033;-53
2021/03/23 10:33:44;;;;;;;4.18;2.10;;;;;;;;;;4992525;28;19910;-54
2021/03/23 10:36:12;;;;;;;5.82;2.20;;;;;;;;;;4991442;28;20109;-50
2021/03/23 10:38:47;;;;;;;4.43;1.88;;;;;;;;;;4992541;28;20018;-45
2021/03/23 10:41:20;;;;;;;8.18;2.13;;;;;;;;;;4989503;28;20074;-42
2021/03/23 10:43:49;;;;;;;7.70;2.28;;;;;;;;;;4990147;28;20022;-44
2021/03/23 10:46:28;;;;;;;11.60;2.78;;;;;;;;;;4995747;28;20081;-43
2021/03/23 10:49:11;;;;;;;7.32;2.70;;;;;;;;;;4995796;28;20034;-42
2021/03/23 10:51:40;;;;;;;14.23;2.70;;;;;;;;;;4995493;28;20022;-42
2021/03/23 10:54:18;;;;;;;11.90;2.58;;;;;;;;;;4994846;28;20065;-42
2021/03/23 10:56:47;;;;;;;13.10;3.10;;;;;;;;;;4994772;28;20030;-43
2021/03/23 10:59:20;;;;;;;7.80;2.17;;;;;;;;;;4995894;28;20026;-43
2021/03/23 11:02:05;;;;;;;12.15;2.72;;;;;;;;;;4995634;28;20026;-43
2021/03/23 11:04:33;;;;;;;12.68;2.90;;;;;;;;;;4995633;28;20030;-42
2021/03/23 11:07:18;;;;;;;14.40;2.72;;;;;;;;;;4993591;28;20030;-42
2021/03/23 11:09:49;;;;;;;8.57;2.63;;;;;;;;;;4994519;28;20062;-43
2021/03/23 11:12:16;;;;;;;19.35;2.75;;;;;;;;;;4988336;28;20120;-40
2021/03/23 11:14:43;;;;;;;25.05;3.83;;;;;;;;;;4993626;28;20019;-44
2021/03/23 11:17:15;;;;;;;137.65;9.52;;;;;;;;;;4994893;28;20019;-39
2021/03/23 11:19:45;;;;;;;31.70;4.50;;;;;;;;;;4992364;28;20073;-41
2021/03/23 11:22:13;;;;;;;159.90;15.32;;;;;;;;;;4991102;28;20568;-43
2021/03/23 11:24:40;;;;;;;156.27;10.95;;;;;;;;;;4990762;28;20022;-42
2021/03/23 11:27:07;;;;;;;50.75;6.60;;;;;;;;;;4990739;28;20053;-41
2021/03/23 11:29:34;;;;;;;53.97;6.55;;;;;;;;;;4974726;28;20037;-41
2021/03/23 11:32:01;;;;;;;32.85;5.32;;;;;;;;;;4966100;28;20027;-41
2021/03/23 11:34:29;;;;;;;29.08;4.40;;;;;;;;;;4993762;28;20030;-41
2021/03/23 11:36:56;;;;;;;33.92;4.68;;;;;;;;;;4990494;28;20010;-43
2021/03/23 11:39:23;;;;;;;159.98;17.02;;;;;;;;;;4992690;28;20022;-40
2021/03/23 11:41:59;;;;;;;277.00;22.50;;;;;;;;;;4993183;28;20026;-40
2021/03/23 11:44:31;;;;;;;124.85;13.07;;;;;;;;;;4992720;28;20498;-45
2021/03/23 11:47:17;;;;;;;67.22;9.02;;;;;;;;;;4993346;28;20037;-50
2021/03/23 11:49:47;;;;;;;143.13;14.38;;;;;;;;;;4986178;28;20077;-48
2021/03/23 11:52:14;;;;;;;123.75;15.32;;;;;;;;;;4993614;28;20069;-49
2021/03/23 11:54:41;;;;;;;160.20;16.73;;;;;;;;;;4988458;28;20058;-47
2021/03/23 11:57:09;;;;;;;115.28;12.07;;;;;;;;;;4975409;28;20478;-47
2021/03/23 11:59:36;;;;;;;92.45;10.10;;;;;;;;;;4993370;28;20022;-50
2021/03/23 12:02:03;;;;;;;74.15;8.85;;;;;;;;;;4993587;28;20026;-47
2021/03/23 12:04:30;;;;;;;60.25;6.85;;;;;;;;;;4993295;28;20054;-54
2021/03/23 12:07:19;;;;;;;55.63;7.53;;;;;;;;;;4991713;28;20022;-47
2021/03/23 12:09:59;;;;;;;56.22;7.60;;;;;;;;;;4993663;28;20457;-48
2021/03/23 12:12:43;;;;;;;42.10;7.07;;;;;;;;;;4976189;28;20057;-46
2021/03/23 12:15:27;;;;;;;42.40;6.60;;;;;;;;;;4982795;28;20061;-46
2021/03/23 12:17:55;;;;;;;60.78;8.77;;;;;;;;;;4992233;28;20022;-46
2021/03/23 12:20:24;;;;;;;25.05;5.35;;;;;;;;;;4992060;28;20403;-45
2021/03/23 12:22:52;;;;;;;32.78;5.55;;;;;;;;;;4992847;28;20046;-47
2021/03/23 12:25:20;;;;;;;43.38;6.10;;;;;;;;;;4993278;28;20026;-47
2021/03/23 12:27:47;;;;;;;38.42;5.82;;;;;;;;;;4993376;28;20019;-47
2021/03/23 12:30:15;;;;;;;38.83;5.10;;;;;;;;;;4991259;28;20028;-48
2021/03/23 12:32:42;;;;;;;39.05;5.95;;;;;;;;;;4992985;28;20089;-49
2021/03/23 12:35:11;;;;;;;42.33;7.13;;;;;;;;;;4992441;28;20026;-48
2021/03/23 12:37:40;;;;;;;42.08;6.40;;;;;;;;;;4993012;28;20023;-49
2021/03/23 12:40:07;;;;;;;41.08;5.85;;;;;;;;;;4992869;28;20019;-47
2021/03/23 12:42:34;;;;;;;37.22;5.80;;;;;;;;;;4990911;28;20014;-49
2021/03/23 12:45:02;;;;;;;40.65;6.13;;;;;;;;;;4992785;28;20034;-47
2021/03/23 12:47:29;;;;;;;32.50;5.63;;;;;;;;;;4992864;28;20105;-50
2021/03/23 12:49:56;;;;;;;31.00;4.90;;;;;;;;;;4992866;28;20475;-51
2021/03/23 12:52:25;;;;;;;29.50;5.22;;;;;;;;;;4992321;28;20077;-49
2021/03/23 12:54:56;;;;;;;31.67;6.22;;;;;;;;;;4991007;28;20041;-47
2021/03/23 12:57:30;;;;;;;22.30;5.07;;;;;;;;;;4975328;28;20030;-46
2021/03/23 12:59:58;;;;;;;27.48;4.65;;;;;;;;;;4992991;28;20031;-47
2021/03/23 13:02:30;;;;;;;21.33;4.28;;;;;;;;;;4992496;28;20027;-50
2021/03/23 13:04:58;;;;;;;21.70;3.97;;;;;;;;;;4991852;28;20026;-47
2021/03/23 13:07:26;;;;;;;21.38;4.00;;;;;;;;;;4989852;28;20033;-49
2021/03/23 13:09:54;;;;;;;22.88;4.18;;;;;;;;;;4992142;28;20487;-46
2021/03/23 13:12:21;;;;;;;17.15;4.22;;;;;;;;;;4992391;28;20104;-47
2021/03/23 13:14:48;;;;;;;19.48;4.00;;;;;;;;;;4992186;28;20022;-47
2021/03/23 13:17:16;;;;;;;15.15;3.67;;;;;;;;;;4990868;28;20058;-49
2021/03/23 13:19:44;;;;;;;16.50;4.32;;;;;;;;;;4990753;28;20080;-52
2021/03/23 13:22:17;;;;;;;19.88;3.58;;;;;;;;;;4991806;28;20113;-49
2021/03/23 13:24:43;;;;;;;19.55;3.78;;;;;;;;;;4991969;28;20030;-48
2021/03/23 13:27:14;;;;;;;18.35;4.22;;;;;;;;;;4991962;28;20109;-50
2021/03/23 13:29:40;;;;;;;22.35;3.95;;;;;;;;;;4984205;28;20088;-49
2021/03/23 13:32:08;;;;;;;14.55;3.30;;;;;;;;;;4992134;28;20119;-49
2021/03/23 13:34:35;;;;;;;11.63;2.75;;;;;;;;;;4992057;28;20021;-48
2021/03/23 13:37:06;;;;;;;15.30;3.65;;;;;;;;;;4991804;28;20022;-49
2021/03/23 13:39:36;;;;;;;17.63;2.67;;;;;;;;;;4991883;28;20378;-49
2021/03/23 13:42:16;;;;;;;13.75;2.50;;;;;;;;;;4989806;28;20021;-49
2021/03/23 13:44:46;;;;;;;11.15;2.40;;;;;;;;;;4974119;28;20031;-47
2021/03/23 13:47:13;;;;;;;12.30;3.00;;;;;;;;;;4990312;28;20374;-49
2021/03/23 13:49:41;;;;;;;12.55;2.53;;;;;;;;;;4974343;28;20537;-47
2021/03/23 13:52:12;;;;;;;11.77;2.53;;;;;;;;;;4991074;28;20153;-46
2021/03/23 13:54:39;;;;;;;12.38;3.17;;;;;;;;;;4989954;28;20391;-47
2021/03/23 13:57:06;;;;;;;12.73;2.20;;;;;;;;;;4991467;28;20084;-46
2021/03/23 13:59:33;;;;;;;8.77;2.15;;;;;;;;;;4991915;28;20054;-47
2021/03/23 14:02:00;;;;;;;6.72;2.22;;;;;;;;;;4991102;28;20022;-46
2021/03/23 14:04:27;;;;;;;10.00;2.88;;;;;;;;;;4990621;28;20027;-46
2021/03/23 14:06:54;;;;;;;9.02;1.98;;;;;;;;;;4987189;28;20023;-51
2021/03/23 14:09:33;;;;;;;6.15;2.33;;;;;;;;;;4985485;28;20034;-51
2021/03/23 14:12:04;;;;;;;13.55;2.58;;;;;;;;;;4974301;28;20092;-52
2021/03/23 14:14:31;;;;;;;8.80;2.38;;;;;;;;;;4991472;28;20446;-48
2021/03/23 14:16:58;;;;;;;8.52;2.53;;;;;;;;;;4990247;28;20026;-48
2021/03/23 14:19:28;;;;;;;8.32;2.10;;;;;;;;;;4985760;28;20030;-50
2021/03/23 14:21:55;;;;;;;10.52;2.55;;;;;;;;;;4988548;28;20082;-49
2021/03/23 14:24:22;;;;;;;10.48;2.20;;;;;;;;;;4995489;28;20072;-49
2021/03/23 14:26:49;;;;;;;14.75;3.30;;;;;;;;;;4971396;28;20023;-51
2021/03/23 14:29:16;;;;;;;20.42;2.90;;;;;;;;;;4993260;28;20037;-51
2021/03/23 14:31:43;;;;;;;8.50;2.22;;;;;;;;;;4995103;28;20018;-50
2021/03/23 14:34:10;;;;;;;14.10;3.00;;;;;;;;;;4995284;28;20030;-53
2021/03/23 14:36:40;;;;;;;15.52;3.10;;;;;;;;;;4995187;28;20046;-54
2021/03/23 14:39:08;;;;;;;12.95;3.25;;;;;;;;;;4995458;28;20378;-53
2021/03/23 14:41:41;;;;;;;16.83;2.97;;;;;;;;;;4993028;28;20053;-54
2021/03/23 14:44:08;;;;;;;;;;;;;;;;;;4990180;28;20022;-49
2021/03/23 14:46:35;;;;;;;10.88;2.20;;;;;;;;;;4995074;28;19910;-52
2021/03/23 14:49:02;;;;;;;14.00;2.22;;;;;;;;;;4993083;28;20117;-48
2021/03/23 14:51:37;;;;;;;11.60;2.40;;;;;;;;;;4994911;28;20019;-49
2021/03/23 14:54:06;;;;;;;12.93;2.40;;;;;;;;;;4992699;28;20085;-49
2021/03/23 14:56:36;;;;;;;11.52;2.53;;;;;;;;;;4995163;28;20180;-49